Terminal Aerodrome Forecast
Issued by NWS Goodland, KS

Home | Current Version | Previous Version | Text Only | Print | Product List | Glossary On
Versions: 1 2 3 4 5 6 7 8 9 10 11 12 13 14 15 16 17 18 19 20 21 22 23
000
FTUS43 KGLD 262337
TAFGLD
TAF
KGLD 262337Z 2700/2724 10008KT P6SM BKN100
     FM270200 14004KT P6SM SCT080
     FM270500 17009KT P6SM BKN070
     FM271500 17015G23KT P6SM SCT150
     FM272000 16013G21KT P6SM VCTS BKN060CB=

USA.gov is the U.S. government's official web portal to all federal, state and local government web resources and services.